Aérodrome :
LOGIN :

S'inscrire | Disclaimer

   EN    FR    IT 

 










Légende :    VFR   VFR Marginal   IFR   IFR Intensif   IFR Très Intensif
Visi : 
Plafond : 
>= 8 km
>= 3000ft
5 à 8 km
1000 à 3000 ft
1500m à 5 km
500 à 1000 ft
800 à 1500m
200 à 500 ft
< 800m
< 200 ft
Symboles :   Orages  Brouillard  Fortes neiges  Fortes précipitations  Vent > 20 kt
SIGMETs :   Divers  Orages  Givrage  Turbulence  Onde Orograph.  Cendres Volcan.






- Altitude de l'aérodrome : 268 ft
- Code IATA : BFS


EGAA - Belfast Aldergrove

DERNIER METAR :
  • 251820Z 29020KT 9999 SCT021 BKN030 BKN042 12/08 Q1011 REUP

METARs EXPIRÉS :
  • 251750Z AUTO 29017KT 9999 FEW033 SCT041 14/07 Q1011 REUP
  • 251720Z AUTO 28016KT 9999 NCD 15/07 Q1010
  • 251650Z AUTO 28019KT 9999 FEW037 15/07 Q1010
  • 251620Z AUTO 28016KT 9999 FEW032 15/08 Q1009
  • 251550Z AUTO 28022KT 9999 FEW033 SCT048 14/07 Q1009

TAF AMD TAF EGAA
Valide du 25 à 18h jusqu'au 26 à 18h UTC


251820Z 2518/2618 28018G28KT 9999 SCT035
BECMG 2518/2520 27014KT
BECMG 2602/2605 21010KT BKN007
TEMPO 2602/2609 7000 RA -RADZ
PROB30
TEMPO 2604/2608 4000 RADZ
BECMG 2607/2610 27016G27KT SCT025



MET'MAP, la Météo Aéronautique d'un coup d'oeil ! - Copyright ORBIFLY Décembre 2007 - Disclaimer

ORBIFLY MET'MAP TEAM :

Programmation & Développement : Alexandra Zaïnal
Sur une idée originale de : Baudouin d'Aumeries
Soutien technique & logistique : Manuel Goepfert
Assistance : Marc-Olivier Méhu

Contact : metmap@orbifly.com




SOURCES & CREDITS :

   NOAA